Latest Weather Observations for Strathalbyn

IDS60901

Issued at 3:11 am CST Monday 25 September 2017 (issued every 10 minutes, with the page automatically refreshed every 10 minutes)

About weather observations | Map of Adelaide area stations | Latest observations for Adelaide area | Other Formats
Station Details ID: 024580 Name: STRATHALBYN RACECOURSE Lat: -35.28 Lon: 138.89 Height: 58.0 m
Data from the previous 72 hours. | See also: Recent months at Strathalbyn
Date/Time
CST
Temp
°C
App
Temp
°C
Dew
Point
°C
Rel
Hum
%
Delta-T
°C
Wind Press
QNH
hPa
Press
MSL
hPa
Rain since
9am
mm
Dir  Spd
km/h
Gust
km/h
Spd
kts
Gust
kts
25/03:00am 11.1 8.2 8.0 81 1.5 WNW 13 24 7 13 1008.8 1008.8 0.4
25/02:30am 11.1 7.3 7.4 78 1.8 W 17 26 9 14 1008.8 1008.8 0.4
25/02:00am 11.8 7.2 8.1 78 1.8 W 22 35 12 19 1008.7 1008.7 0.4
25/01:30am 11.7 8.1 8.4 80 1.6 W 17 24 9 13 1008.8 1008.8 0.4
25/01:00am 11.7 7.2 8.6 81 1.5 W 22 33 12 18 1009.0 1009.0 0.4
25/12:30am 11.8 7.1 7.7 76 2.0 W 22 33 12 18 1009.0 1009.0 0.4
25/12:00am 11.5 8.2 8.0 79 1.7 W 15 24 8 13 1009.0 1009.0 0.4
 
Date/Time
CST
Temp
°C
App
Temp
°C
Dew
Point
°C
Rel
Hum
%
Delta-T
°C
Wind Press
QNH
hPa
Press
MSL
hPa
Rain since
9am
mm
Dir  Spd
km/h
Gust
km/h
Spd
kts
Gust
kts
24/11:30pm 11.3 8.4 8.2 81 1.5 W 13 20 7 11 1009.0 1009.0 0.4
24/11:00pm 11.5 8.6 8.2 80 1.6 WSW 13 30 7 16 1009.1 1009.1 0.4
24/10:30pm 11.4 9.3 8.1 80 1.6 WSW 9 17 5 9 1009.0 1009.0 0.4
24/10:00pm 11.6 7.6 8.3 80 1.6 WSW 19 26 10 14 1008.8 1008.8 0.4
24/09:30pm 12.0 9.3 8.8 81 1.6 WSW 13 20 7 11 1008.6 1008.6 0.4
24/09:00pm 12.5 9.5 9.1 80 1.7 W 15 24 8 13 1008.4 1008.4 0.4
24/08:30pm 12.7 8.6 8.8 77 2.0 W 20 32 11 17 1008.1 1008.1 0.4
24/08:00pm 12.4 7.3 7.7 73 2.3 W 24 35 13 19 1007.5 1007.5 0.4
24/07:30pm 12.1 5.9 7.8 75 2.1 W 30 44 16 24 1006.9 1006.9 0.4
24/07:00pm 12.2 7.3 8.5 78 1.8 W 24 39 13 21 1006.6 1006.6 0.4
24/06:35pm 13.8 7.8 6.9 63 3.4 W 28 46 15 25 1006.1 1006.1 0.4
24/06:30pm 13.8 7.7 6.4 61 3.6 W 28 43 15 23 1006.0 1006.0 0.4
24/06:00pm 14.1 7.6 6.5 60 3.7 WNW 30 48 16 26 1005.5 1005.5 0.4
24/05:46pm 14.1 7.6 6.5 60 3.7 W 30 48 16 26 1005.5 1005.5 0.4
24/05:30pm 14.5 7.4 6.3 58 4.0 W 33 46 18 25 1005.1 1005.1 0.4
24/05:05pm 15.1 8.9 6.1 55 4.3 W 28 46 15 25 1004.8 1004.8 0.4
24/05:00pm 15.3 9.2 6.6 56 4.2 W 28 43 15 23 1004.8 1004.8 0.4
24/04:30pm 15.7 8.8 6.4 54 4.6 WNW 32 56 17 30 1004.3 1004.2 0.4
24/04:00pm 15.8 8.2 6.0 52 4.7 WNW 35 63 19 34 1004.1 1004.0 0.4
24/03:32pm 16.2 8.6 5.8 50 5.0 WNW 35 54 19 29 1003.6 1003.5 0.4
24/03:30pm 16.4 8.9 6.2 51 5.0 WNW 35 52 19 28 1003.6 1003.5 0.4
24/03:02pm 16.4 7.5 5.1 47 5.4 WNW 41 59 22 32 1003.5 1003.4 0.4
24/03:00pm 16.2 6.8 4.6 46 5.5 WNW 43 59 23 32 1003.5 1003.4 0.4
24/02:30pm 16.2 6.0 5.2 48 5.3 WNW 48 67 26 36 1003.3 1003.2 0.4
24/02:00pm 16.4 6.4 6.0 50 5.1 WNW 48 69 26 37 1003.3 1003.2 0.4
24/01:30pm 16.4 6.6 5.1 47 5.4 WNW 46 69 25 37 1003.4 1003.3 0.4
24/01:00pm 16.8 7.1 5.7 48 5.4 WNW 46 67 25 36 1003.2 1003.1 0.4
24/12:30pm 16.0 5.4 5.0 48 5.2 WNW 50 76 27 41 1003.1 1003.0 0.4
24/12:24pm 15.8 6.1 5.7 51 4.9 WNW 46 76 25 41 1003.0 1002.9 0.4
24/12:06pm 15.3 8.2 8.1 62 3.6 WNW 35 59 19 32 1003.2 1003.1 0.4
24/12:00pm 15.7 8.6 8.2 61 3.8 WNW 35 52 19 28 1003.2 1003.1 0.4
24/11:30am 15.2 6.7 8.4 64 3.5 WNW 43 65 23 35 1003.2 1003.1 0.4
24/11:13am 15.8 7.5 7.6 58 4.1 WNW 41 70 22 38 1003.1 1003.0 0.4
24/11:00am 15.4 6.8 8.2 62 3.6 WNW 43 59 23 32 1003.0 1002.9 0.4
24/10:32am 15.5 7.6 7.8 60 3.9 WNW 39 65 21 35 1002.9 1002.8 0.4
24/10:30am 15.7 8.1 8.9 64 3.5 WNW 39 54 21 29 1002.9 1002.8 0.4
24/10:01am 15.0 7.4 8.9 67 3.1 WNW 39 57 21 31 1003.1 1003.0 0.4
24/10:00am 14.7 6.5 8.4 66 3.2 WNW 41 57 22 31 1003.0 1002.9 0.4
24/09:30am 13.8 6.9 8.8 72 2.5 WNW 35 57 19 31 1003.3 1003.2 0.4
24/09:00am 14.7 7.7 8.4 66 3.2 WNW 35 54 19 29 1003.1 1003.0 0.0
24/08:30am 13.9 7.2 7.4 65 3.2 WNW 32 54 17 29 1003.0 1002.9 0.0
24/08:22am 13.8 7.3 8.0 68 2.9 WNW 32 54 17 29 1003.0 1002.9 0.0
24/08:00am 12.9 5.8 8.2 73 2.3 WNW 35 52 19 28 1003.0 1002.9 0.0
24/07:47am 13.0 5.8 7.7 70 2.6 WNW 35 63 19 34 1002.8 1002.7 0.0
24/07:30am 13.5 6.7 7.1 65 3.1 WNW 32 46 17 25 1002.5 1002.4 0.0
24/07:00am 12.9 7.1 7.8 71 2.5 WNW 28 43 15 23 1002.3 1002.2 0.0
24/06:31am 12.9 6.1 6.9 67 2.9 WNW 32 50 17 27 1002.2 1002.1 0.0
24/06:30am 12.9 5.9 6.9 67 2.9 WNW 33 50 18 27 1002.2 1002.1 0.0
24/06:06am 13.0 5.6 6.6 65 3.1 WNW 35 54 19 29 1001.7 1001.7 0.0
24/06:00am 12.9 5.3 5.8 62 3.4 WNW 35 52 19 28 1001.7 1001.7 0.0
24/05:30am 12.7 5.1 7.4 70 2.6 WNW 37 56 20 30 1001.5 1001.5 0.0
24/05:07am 12.9 6.2 7.4 69 2.7 WNW 32 50 17 27 1001.2 1001.2 0.0
24/05:00am 13.2 5.9 7.2 67 2.9 WNW 35 50 19 27 1001.2 1001.2 0.0
24/04:34am 12.9 6.2 7.4 69 2.7 WNW 32 50 17 27 1001.0 1001.0 0.0
24/04:30am 13.0 6.1 7.2 68 2.8 WNW 33 50 18 27 1001.0 1001.0 0.0
24/04:01am 12.9 5.7 7.6 70 2.6 WNW 35 54 19 29 1000.9 1000.9 0.0
24/04:00am 13.0 5.4 7.7 70 2.6 WNW 37 54 20 29 1000.9 1000.9 0.0
24/03:51am 13.0 6.8 7.9 71 2.5 WNW 30 54 16 29 1000.8 1000.8 0.0
24/03:30am 13.1 6.3 7.8 70 2.6 WNW 33 48 18 26 1000.8 1000.8 0.0
24/03:16am 13.3 7.1 7.7 69 2.8 WNW 30 48 16 26 1001.1 1001.1 0.0
24/03:00am 13.3 6.5 7.7 69 2.8 WNW 33 48 18 26 1001.2 1001.2 0.0
24/02:30am 13.3 6.8 8.0 70 2.6 WNW 32 46 17 25 1001.4 1001.4 0.0
24/02:03am 13.4 6.2 7.6 68 2.9 WNW 35 56 19 30 1001.5 1001.5 0.0
24/02:00am 13.4 6.2 7.6 68 2.9 WNW 35 50 19 27 1001.5 1001.5 0.0
24/01:30am 13.3 6.0 7.3 67 2.9 WNW 35 57 19 31 1001.7 1001.7 0.0
24/01:01am 13.5 7.4 8.4 71 2.6 WNW 30 50 16 27 1001.7 1001.7 0.0
24/01:00am 13.5 7.8 8.4 71 2.6 WNW 28 43 15 23 1001.8 1001.8 0.0
24/12:30am 14.0 7.4 8.4 69 2.8 WNW 33 56 18 30 1001.7 1001.7 0.0
24/12:00am 14.5 8.6 8.9 69 2.9 NW 30 57 16 31 1002.4 1002.3 0.0
 
Date/Time
CST
Temp
°C
App
Temp
°C
Dew
Point
°C
Rel
Hum
%
Delta-T
°C
Wind Press
QNH
hPa
Press
MSL
hPa
Rain since
9am
mm
Dir  Spd
km/h
Gust
km/h
Spd
kts
Gust
kts
23/11:30pm 14.5 8.0 8.9 69 2.9 NW 33 48 18 26 1002.5 1002.4 0.0
23/11:00pm 14.4 7.9 8.8 69 2.8 NW 33 52 18 28 1002.7 1002.6 0.0
23/10:30pm 14.3 7.0 8.7 69 2.8 NW 37 56 20 30 1002.7 1002.6 0.0
23/10:04pm 14.3 7.7 8.7 69 2.8 NW 33 54 18 29 1002.7 1002.6 0.0
23/10:00pm 14.1 7.7 8.7 70 2.7 NW 32 44 17 24 1002.8 1002.7 0.0
23/09:30pm 14.4 7.4 8.6 68 2.9 WNW 35 56 19 30 1002.8 1002.7 0.0
23/09:14pm 14.2 7.6 8.4 68 2.9 WNW 33 52 18 28 1002.8 1002.7 0.0
23/09:00pm 14.4 7.8 8.6 68 2.9 WNW 33 46 18 25 1002.7 1002.6 0.0
23/08:40pm 14.6 7.9 8.3 66 3.2 WNW 33 54 18 29 1002.9 1002.8 0.0
23/08:30pm 14.3 7.8 8.3 67 3.0 WNW 32 46 17 25 1002.8 1002.7 0.0
23/08:02pm 14.5 8.1 8.5 67 3.0 WNW 32 50 17 27 1002.7 1002.6 0.0
23/08:00pm 14.7 8.1 8.4 66 3.2 WNW 33 50 18 27 1002.6 1002.5 0.0
23/07:49pm 14.7 8.0 8.2 65 3.3 WNW 33 52 18 28 1002.5 1002.4 0.0
23/07:30pm 14.8 7.6 7.8 63 3.5 WNW 35 52 19 28 1002.2 1002.1 0.0
23/07:13pm 15.0 8.2 7.8 62 3.6 WNW 33 52 18 28 1001.7 1001.7 0.0
23/07:00pm 15.1 8.3 7.9 62 3.6 WNW 33 50 18 27 1001.5 1001.5 0.0
23/06:30pm 15.3 7.4 7.8 61 3.8 WNW 39 61 21 33 1001.1 1001.1 0.0
23/06:00pm 15.6 8.4 7.6 59 4.0 WNW 35 56 19 30 1000.8 1000.8 0.0
23/05:34pm 15.9 9.4 8.2 60 3.9 WNW 32 50 17 27 1000.8 1000.8 0.0
23/05:30pm 15.9 9.8 8.4 61 3.8 W 30 46 16 25 1000.7 1000.7 0.0
23/05:00pm 16.2 10.3 9.2 63 3.6 W 30 50 16 27 1000.4 1000.4 0.0
23/04:45pm 16.2 10.7 9.2 63 3.6 W 28 48 15 26 1000.2 1000.2 0.0
23/04:30pm 16.3 10.1 9.5 64 3.6 W 32 46 17 25 1000.4 1000.4 0.0
23/04:17pm 16.6 10.6 10.0 65 3.5 WNW 32 57 17 31 1000.3 1000.3 0.0
23/04:00pm 16.1 10.9 10.2 68 3.1 WNW 28 43 15 23 1000.1 1000.1 0.0
23/03:30pm 17.2 9.6 8.9 58 4.3 WNW 39 59 21 32 999.9 999.9 0.0
23/03:00pm 18.7 10.2 8.4 51 5.4 WNW 43 61 23 33 999.5 999.5 0.0
23/02:32pm 19.0 10.5 8.4 50 5.5 WNW 43 69 23 37 999.1 999.1 0.0
23/02:30pm 19.3 11.3 8.9 51 5.5 WNW 41 57 22 31 999.1 999.1 0.0
23/02:00pm 20.0 12.5 9.6 51 5.6 WNW 39 65 21 35 998.8 998.8 0.0
23/01:30pm 20.1 11.3 9.7 51 5.6 WNW 46 67 25 36 998.2 998.2 0.0
23/01:00pm 20.3 11.2 9.8 51 5.6 WNW 48 69 26 37 997.7 997.7 0.0
23/12:30pm 20.8 11.4 10.3 51 5.7 WNW 50 70 27 38 997.4 997.4 0.0
23/12:00pm 21.9 13.9 10.4 48 6.3 WNW 43 70 23 38 997.0 997.0 0.0
23/11:30am 22.5 13.8 10.0 45 6.9 NW 46 69 25 37 996.6 996.6 0.0
23/11:06am 22.9 15.2 8.6 40 7.6 NW 39 57 21 31 996.0 996.0 0.0
23/11:00am 23.4 15.9 9.4 41 7.6 NW 39 54 21 29 996.0 996.0 0.0
23/10:30am 23.2 16.9 9.6 42 7.4 NW 33 52 18 28 995.4 995.4 0.0
23/10:23am 23.1 16.6 8.0 38 8.0 NW 32 52 17 28 995.4 995.4 0.0
23/10:00am 23.3 17.7 10.0 43 7.3 NW 30 44 16 24 995.3 995.3 0.0
23/09:53am 23.0 17.6 9.4 42 7.4 NW 28 43 15 23 995.3 995.3 0.0
23/09:30am 20.2 19.1 11.9 59 4.7 N 9 13 5 7 995.5 995.5 0.0
23/09:00am 18.7 18.0 12.0 65 3.7 WNW 7 9 4 5 995.9 995.9 0.0
23/08:30am 17.7 17.1 11.7 68 3.3 WSW 6 11 3 6 995.9 995.9 0.0
23/08:00am 16.7 16.2 12.0 74 2.6 SW 6 9 3 5 995.9 995.9 0.0
23/07:30am 15.4 15.1 12.7 84 1.5 W 6 9 3 5 996.0 996.0 0.0
23/07:00am 14.4 13.4 12.3 87 1.1 W 9 11 5 6 995.8 995.8 0.0
23/06:30am 11.4 10.0 9.7 89 0.9 WSW 7 11 4 6 996.3 996.3 0.0
23/06:00am 12.4 10.3 11.1 92 0.7 NW 13 15 7 8 995.9 995.9 0.0
23/05:30am 12.0 10.2 10.9 93 0.6 NNW 11 17 6 9 996.0 996.0 0.0
23/05:00am 11.6 10.5 10.7 94 0.5 NW 7 9 4 5 996.6 996.6 0.0
23/04:30am 11.7 10.4 10.1 90 0.8 NW 7 9 4 5 996.5 996.5 0.0
23/04:00am 12.9 12.1 11.1 89 0.9 NW 6 11 3 6 997.6 997.6 0.0
23/03:30am 13.2 12.2 11.1 87 1.1 W 7 19 4 10 997.8 997.8 0.0
23/03:00am 14.5 12.3 12.2 86 1.3 NNE 15 28 8 15 997.9 997.9 0.0
23/02:30am 14.4 12.5 11.9 85 1.4 ENE 13 20 7 11 999.5 999.5 0.0
23/02:22am 14.5 12.6 11.8 84 1.5 SW 13 24 7 13 999.0 999.0 0.0
23/02:00am 14.4 12.1 11.7 84 1.5 SW 15 26 8 14 1001.0 1001.0 0.0
23/01:30am 13.8 12.8 11.0 83 1.5 S 7 17 4 9 999.9 999.9 0.0
23/01:00am 14.3 12.7 10.1 76 2.2 ESE 9 11 5 6 999.3 999.3 0.0
23/12:30am 15.3 14.2 9.9 70 2.8 SE 6 15 3 8 999.9 999.9 0.0
23/12:00am 16.5 12.7 9.7 64 3.6 S 20 26 11 14 1001.2 1001.2 0.0
 
Date/Time
CST
Temp
°C
App
Temp
°C
Dew
Point
°C
Rel
Hum
%
Delta-T
°C
Wind Press
QNH
hPa
Press
MSL
hPa
Rain since
9am
mm
Dir  Spd
km/h
Gust
km/h
Spd
kts
Gust
kts
22/11:51pm 17.3 14.6 9.0 58 4.3 E 13 28 7 15 1001.3 1001.3 0.0
22/11:30pm 22.4 19.1 6.2 35 8.3 NNW 13 19 7 10 1001.1 1001.1 0.0
22/11:00pm 22.7 18.6 6.0 34 8.5 W 17 28 9 15 1002.1 1002.0 0.0
22/10:48pm 23.3 18.3 8.2 38 8.0 W 24 35 13 19 1001.7 1001.7 0.0
22/10:30pm 17.9 14.5 9.0 56 4.7 N 17 19 9 10 1000.9 1000.9 0.0
22/10:00pm 17.6 14.8 8.7 56 4.6 NW 13 19 7 10 1001.6 1001.6 0.0
22/09:30pm 17.2 14.2 9.1 59 4.2 NNW 15 20 8 11 1002.2 1002.1 0.0
22/09:00pm 15.6 14.1 9.3 66 3.3 NE 7 11 4 6 1002.4 1002.3 0.0
22/08:30pm 16.7 15.3 8.7 59 4.1 NNE 6 7 3 4 1002.4 1002.3 0.0
22/08:00pm 16.9 15.0 9.1 60 4.0 N 9 11 5 6 1002.3 1002.2 0.0
22/07:30pm 18.5 15.4 8.7 53 5.1 WNW 15 20 8 11 1002.4 1002.3 0.0
22/07:00pm 20.8 17.1 8.1 44 6.6 WNW 17 22 9 12 1002.4 1002.3 0.0
22/06:30pm 18.1 15.4 10.5 61 4.1 NW 15 19 8 10 1002.1 1002.0 0.0
22/06:00pm 21.3 20.0 11.1 52 5.7 NNW 9 9 5 5 1001.9 1001.9 0.0
22/05:30pm 25.4 24.1 11.2 41 8.1 NNW 9 11 5 6 1001.9 1001.9 0.0
22/05:00pm 27.1 26.8 13.4 42 8.1 NNW 7 9 4 5 1001.9 1001.9 0.0
22/04:30pm 26.8 23.5 6.2 27 10.8 NNW 13 20 7 11 1002.2 1002.1 0.0
22/04:00pm 28.1 24.4 7.9 28 10.9 NW 17 22 9 12 1002.4 1002.3 0.0
22/03:30pm 28.2 22.8 6.3 25 11.6 NW 24 32 13 17 1002.6 1002.5 0.0
22/03:00pm 28.5 24.3 8.2 28 11.1 NW 20 28 11 15 1002.8 1002.7 0.0
22/02:30pm 28.4 23.8 8.1 28 11.1 NW 22 30 12 16 1002.8 1002.7 0.0
22/02:00pm 28.4 23.7 7.6 27 11.2 NNW 22 33 12 18 1002.8 1002.7 0.0
22/01:30pm 28.3 23.7 8.1 28 11.0 NNW 22 33 12 18 1002.8 1002.7 0.0
22/01:00pm 28.0 23.4 6.7 26 11.3 NW 20 28 11 15 1003.3 1003.2 0.0
22/12:30pm 28.2 25.3 9.5 31 10.5 NNW 15 20 8 11 1003.7 1003.6 0.0
22/12:00pm 27.3 24.2 8.7 31 10.2 NNW 15 20 8 11 1004.0 1003.9 0.0
22/11:30am 25.8 22.5 7.9 32 9.6 N 15 20 8 11 1004.5 1004.4 0.0
22/11:00am 25.5 21.2 7.1 31 9.7 NNW 19 24 10 13 1005.1 1005.1 0.0
22/10:30am 25.0 21.1 8.5 35 8.9 NNW 19 30 10 16 1005.5 1005.5 0.0
22/10:00am 23.8 22.6 11.5 46 6.9 N 9 19 5 10 1006.0 1006.0 0.0
22/09:30am 19.5 20.7 13.7 69 3.3 CALM 0 0 0 0 1006.4 1006.4 0.0
22/09:00am 16.8 17.3 12.7 77 2.3 SW 2 6 1 3 1006.7 1006.7 0.0
22/08:30am 14.2 13.2 11.0 81 1.7 SW 7 7 4 4 1006.7 1006.7 0.0
22/08:00am 12.6 12.4 9.1 79 1.8 CALM 0 0 0 0 1006.7 1006.7 0.0
22/07:30am 11.2 9.7 9.1 87 1.1 NNE 7 9 4 5 1006.6 1006.6 0.0
22/07:00am 8.2 6.9 7.8 97 0.2 NNE 4 9 2 5 1006.8 1006.8 0.0
22/06:30am 5.7 2.9 5.1 96 0.3 N 9 13 5 7 1006.9 1006.9 0.0
22/06:00am 5.4 2.5 4.8 96 0.3 NNW 9 13 5 7 1007.0 1007.0 0.0
22/05:30am 4.7 1.7 4.1 96 0.3 N 9 11 5 6 1007.2 1007.2 0.0
22/05:00am 4.8 2.1 3.9 94 0.4 N 7 9 4 5 1007.4 1007.4 0.0
22/04:30am 5.6 2.8 5.0 96 0.3 N 9 11 5 6 1007.5 1007.5 0.0
22/04:00am 5.7 3.3 5.1 96 0.3 N 7 9 4 5 1007.9 1007.9 0.0
22/03:30am 5.8 3.0 5.2 96 0.3 N 9 9 5 5 1008.3 1008.3 0.0

Latest Capital City Observations: Canberra | Sydney | Melbourne | Brisbane | Adelaide | Perth | Hobart | Darwin

Other Formats:

Comma delimited format used in spreadsheet applications
http://www.bom.gov.au/fwo/IDS60901/IDS60901.94814.axf

JavaScript Object Notation format (JSON) in row-major order
http://www.bom.gov.au/fwo/IDS60901/IDS60901.94814.json